sensor_id;sensor_type;location;lat;lon;timestamp;P1;durP1;ratioP1;P2;durP2;ratioP2
27684;SDS011;46113;50.130;8.526;2024-01-06T00:00:31;1.65;;;0.50;;
27684;SDS011;46113;50.130;8.526;2024-01-06T00:02:58;4.63;;;0.70;;
27684;SDS011;46113;50.130;8.526;2024-01-06T00:05:25;7.97;;;0.63;;
27684;SDS011;46113;50.130;8.526;2024-01-06T00:07:52;5.78;;;1.13;;
27684;SDS011;46113;50.130;8.526;2024-01-06T00:10:18;2.78;;;0.70;;
27684;SDS011;46113;50.130;8.526;2024-01-06T00:12:45;1.90;;;0.77;;
27684;SDS011;46113;50.130;8.526;2024-01-06T00:15:12;0.73;;;0.68;;
27684;SDS011;46113;50.130;8.526;2024-01-06T00:17:39;5.00;;;1.30;;
27684;SDS011;46113;50.130;8.526;2024-01-06T00:20:06;0.98;;;0.57;;
27684;SDS011;46113;50.130;8.526;2024-01-06T00:22:34;6.05;;;1.02;;
27684;SDS011;46113;50.130;8.526;2024-01-06T00:25:04;3.40;;;0.80;;
27684;SDS011;46113;50.130;8.526;2024-01-06T00:27:31;1.30;;;0.70;;
27684;SDS011;46113;50.130;8.526;2024-01-06T00:29:58;4.47;;;0.85;;
27684;SDS011;46113;50.130;8.526;2024-01-06T00:32:25;7.75;;;1.42;;
27684;SDS011;46113;50.130;8.526;2024-01-06T00:34:51;5.30;;;1.05;;
27684;SDS011;46113;50.130;8.526;2024-01-06T00:37:18;3.78;;;1.00;;
27684;SDS011;46113;50.130;8.526;2024-01-06T00:39:45;3.92;;;0.90;;
27684;SDS011;46113;50.130;8.526;2024-01-06T00:42:12;7.00;;;1.17;;
27684;SDS011;46113;50.130;8.526;2024-01-06T00:44:40;4.53;;;0.98;;
27684;SDS011;46113;50.130;8.526;2024-01-06T00:47:06;1.90;;;1.10;;
27684;SDS011;46113;50.130;8.526;2024-01-06T00:49:33;3.08;;;0.65;;
27684;SDS011;46113;50.130;8.526;2024-01-06T00:52:01;3.42;;;0.88;;
27684;SDS011;46113;50.130;8.526;2024-01-06T00:54:30;1.65;;;0.60;;
27684;SDS011;46113;50.130;8.526;2024-01-06T00:56:59;3.60;;;0.70;;
27684;SDS011;46113;50.130;8.526;2024-01-06T00:59:26;4.40;;;0.85;;
27684;SDS011;46113;50.130;8.526;2024-01-06T01:01:55;1.27;;;0.50;;
27684;SDS011;46113;50.130;8.526;2024-01-06T01:04:22;6.75;;;0.73;;
27684;SDS011;46113;50.130;8.526;2024-01-06T01:06:49;2.03;;;0.73;;
27684;SDS011;46113;50.130;8.526;2024-01-06T01:09:18;2.40;;;0.57;;
27684;SDS011;46113;50.130;8.526;2024-01-06T01:11:45;1.05;;;0.60;;
27684;SDS011;46113;50.130;8.526;2024-01-06T01:14:12;3.53;;;0.90;;
27684;SDS011;46113;50.130;8.526;2024-01-06T01:16:39;4.30;;;0.95;;
27684;SDS011;46113;50.130;8.526;2024-01-06T01:19:06;1.00;;;0.75;;
27684;SDS011;46113;50.130;8.526;2024-01-06T01:21:33;1.25;;;0.55;;
27684;SDS011;46113;50.130;8.526;2024-01-06T01:24:06;8.43;;;0.90;;
27684;SDS011;46113;50.130;8.526;2024-01-06T01:26:32;3.08;;;0.63;;
27684;SDS011;46113;50.130;8.526;2024-01-06T01:28:59;7.88;;;0.88;;
27684;SDS011;46113;50.130;8.526;2024-01-06T01:31:26;5.70;;;0.90;;
27684;SDS011;46113;50.130;8.526;2024-01-06T01:33:53;4.55;;;0.60;;
27684;SDS011;46113;50.130;8.526;2024-01-06T01:36:20;5.28;;;0.85;;
27684;SDS011;46113;50.130;8.526;2024-01-06T01:38:47;9.40;;;0.93;;
27684;SDS011;46113;50.130;8.526;2024-01-06T01:41:13;2.97;;;1.23;;
27684;SDS011;46113;50.130;8.526;2024-01-06T01:43:40;2.10;;;0.60;;
27684;SDS011;46113;50.130;8.526;2024-01-06T01:46:07;1.60;;;0.88;;
27684;SDS011;46113;50.130;8.526;2024-01-06T01:48:34;3.10;;;0.73;;
27684;SDS011;46113;50.130;8.526;2024-01-06T01:51:01;1.70;;;0.80;;
27684;SDS011;46113;50.130;8.526;2024-01-06T01:53:29;5.15;;;0.63;;
27684;SDS011;46113;50.130;8.526;2024-01-06T01:55:57;4.88;;;0.80;;
27684;SDS011;46113;50.130;8.526;2024-01-06T01:58:24;3.83;;;1.02;;
27684;SDS011;46113;50.130;8.526;2024-01-06T02:00:51;7.78;;;0.90;;
27684;SDS011;46113;50.130;8.526;2024-01-06T02:03:19;4.43;;;0.63;;
27684;SDS011;46113;50.130;8.526;2024-01-06T02:05:48;0.55;;;0.47;;
27684;SDS011;46113;50.130;8.526;2024-01-06T02:08:15;0.93;;;0.60;;
27684;SDS011;46113;50.130;8.526;2024-01-06T02:10:41;3.10;;;0.50;;
27684;SDS011;46113;50.130;8.526;2024-01-06T02:13:11;3.92;;;0.52;;
27684;SDS011;46113;50.130;8.526;2024-01-06T02:15:39;1.48;;;0.55;;
27684;SDS011;46113;50.130;8.526;2024-01-06T02:18:06;1.63;;;0.52;;
27684;SDS011;46113;50.130;8.526;2024-01-06T02:20:34;0.82;;;0.70;;
27684;SDS011;46113;50.130;8.526;2024-01-06T02:23:01;6.97;;;0.77;;
27684;SDS011;46113;50.130;8.526;2024-01-06T02:25:27;1.70;;;0.60;;
27684;SDS011;46113;50.130;8.526;2024-01-06T02:27:55;3.58;;;0.68;;
27684;SDS011;46113;50.130;8.526;2024-01-06T02:30:22;0.93;;;0.68;;
27684;SDS011;46113;50.130;8.526;2024-01-06T02:32:49;2.40;;;0.55;;
27684;SDS011;46113;50.130;8.526;2024-01-06T02:35:16;3.10;;;0.68;;
27684;SDS011;46113;50.130;8.526;2024-01-06T02:37:42;1.05;;;0.80;;
27684;SDS011;46113;50.130;8.526;2024-01-06T02:40:09;3.40;;;0.98;;
27684;SDS011;46113;50.130;8.526;2024-01-06T02:42:37;5.95;;;0.80;;
27684;SDS011;46113;50.130;8.526;2024-01-06T02:45:04;2.65;;;0.68;;
27684;SDS011;46113;50.130;8.526;2024-01-06T02:47:31;6.43;;;1.10;;
27684;SDS011;46113;50.130;8.526;2024-01-06T02:49:58;4.13;;;1.00;;
27684;SDS011;46113;50.130;8.526;2024-01-06T02:52:25;2.70;;;0.40;;
27684;SDS011;46113;50.130;8.526;2024-01-06T02:54:52;1.63;;;0.60;;
27684;SDS011;46113;50.130;8.526;2024-01-06T02:57:18;3.17;;;0.60;;
27684;SDS011;46113;50.130;8.526;2024-01-06T02:59:45;1.05;;;0.50;;
27684;SDS011;46113;50.130;8.526;2024-01-06T03:02:17;0.70;;;0.60;;
27684;SDS011;46113;50.130;8.526;2024-01-06T03:04:47;1.33;;;0.55;;
27684;SDS011;46113;50.130;8.526;2024-01-06T03:07:14;1.38;;;0.40;;
27684;SDS011;46113;50.130;8.526;2024-01-06T03:09:41;4.72;;;0.70;;
27684;SDS011;46113;50.130;8.526;2024-01-06T03:12:11;2.58;;;0.88;;
27684;SDS011;46113;50.130;8.526;2024-01-06T03:14:38;9.10;;;0.95;;
27684;SDS011;46113;50.130;8.526;2024-01-06T03:17:05;1.98;;;0.98;;
27684;SDS011;46113;50.130;8.526;2024-01-06T03:19:32;0.57;;;0.40;;
27684;SDS011;46113;50.130;8.526;2024-01-06T03:21:59;3.63;;;0.75;;
27684;SDS011;46113;50.130;8.526;2024-01-06T03:24:26;1.88;;;0.85;;
27684;SDS011;46113;50.130;8.526;2024-01-06T03:26:54;4.90;;;1.23;;
27684;SDS011;46113;50.130;8.526;2024-01-06T03:29:21;5.50;;;1.05;;
27684;SDS011;46113;50.130;8.526;2024-01-06T03:31:47;3.13;;;0.68;;
27684;SDS011;46113;50.130;8.526;2024-01-06T03:34:15;1.52;;;0.73;;
27684;SDS011;46113;50.130;8.526;2024-01-06T03:36:42;1.50;;;0.65;;
27684;SDS011;46113;50.130;8.526;2024-01-06T03:39:09;6.85;;;0.77;;
27684;SDS011;46113;50.130;8.526;2024-01-06T03:41:37;3.33;;;0.93;;
27684;SDS011;46113;50.130;8.526;2024-01-06T03:44:04;3.80;;;0.60;;
27684;SDS011;46113;50.130;8.526;2024-01-06T03:46:32;2.17;;;0.77;;
27684;SDS011;46113;50.130;8.526;2024-01-06T03:48:59;1.85;;;0.70;;
27684;SDS011;46113;50.130;8.526;2024-01-06T03:51:27;3.78;;;1.73;;
27684;SDS011;46113;50.130;8.526;2024-01-06T03:53:54;4.35;;;1.38;;
27684;SDS011;46113;50.130;8.526;2024-01-06T03:56:21;1.13;;;0.85;;
27684;SDS011;46113;50.130;8.526;2024-01-06T03:58:47;2.45;;;0.82;;
27684;SDS011;46113;50.130;8.526;2024-01-06T04:01:14;2.95;;;0.60;;
27684;SDS011;46113;50.130;8.526;2024-01-06T04:03:41;4.53;;;1.00;;
27684;SDS011;46113;50.130;8.526;2024-01-06T04:06:08;2.10;;;0.60;;
27684;SDS011;46113;50.130;8.526;2024-01-06T04:08:36;3.42;;;0.70;;
27684;SDS011;46113;50.130;8.526;2024-01-06T04:11:03;5.18;;;0.70;;
27684;SDS011;46113;50.130;8.526;2024-01-06T04:13:30;4.38;;;0.93;;
27684;SDS011;46113;50.130;8.526;2024-01-06T04:15:57;1.70;;;0.60;;
27684;SDS011;46113;50.130;8.526;2024-01-06T04:18:24;4.38;;;0.60;;
27684;SDS011;46113;50.130;8.526;2024-01-06T04:20:51;3.92;;;1.25;;
27684;SDS011;46113;50.130;8.526;2024-01-06T04:23:17;1.30;;;0.73;;
27684;SDS011;46113;50.130;8.526;2024-01-06T04:25:49;1.70;;;0.73;;
27684;SDS011;46113;50.130;8.526;2024-01-06T04:28:15;2.95;;;0.63;;
27684;SDS011;46113;50.130;8.526;2024-01-06T04:30:42;1.20;;;0.65;;
27684;SDS011;46113;50.130;8.526;2024-01-06T04:33:09;2.15;;;1.05;;
27684;SDS011;46113;50.130;8.526;2024-01-06T04:35:36;1.42;;;0.47;;
27684;SDS011;46113;50.130;8.526;2024-01-06T04:38:03;5.18;;;1.08;;
27684;SDS011;46113;50.130;8.526;2024-01-06T04:40:30;4.97;;;1.02;;
27684;SDS011;46113;50.130;8.526;2024-01-06T04:42:57;3.85;;;1.25;;
27684;SDS011;46113;50.130;8.526;2024-01-06T04:45:24;2.90;;;0.90;;
27684;SDS011;46113;50.130;8.526;2024-01-06T04:47:51;3.97;;;0.90;;
27684;SDS011;46113;50.130;8.526;2024-01-06T04:50:19;0.73;;;0.60;;
27684;SDS011;46113;50.130;8.526;2024-01-06T04:52:46;2.53;;;1.20;;
27684;SDS011;46113;50.130;8.526;2024-01-06T04:55:13;3.75;;;1.08;;
27684;SDS011;46113;50.130;8.526;2024-01-06T04:57:40;4.47;;;0.98;;
27684;SDS011;46113;50.130;8.526;2024-01-06T05:00:09;4.43;;;1.00;;
27684;SDS011;46113;50.130;8.526;2024-01-06T05:02:37;3.60;;;0.93;;
27684;SDS011;46113;50.130;8.526;2024-01-06T05:05:04;5.47;;;1.02;;
27684;SDS011;46113;50.130;8.526;2024-01-06T05:07:31;0.93;;;0.63;;
27684;SDS011;46113;50.130;8.526;2024-01-06T05:12:54;5.75;;;1.02;;
27684;SDS011;46113;50.130;8.526;2024-01-06T05:15:20;2.90;;;0.82;;
27684;SDS011;46113;50.130;8.526;2024-01-06T05:17:47;1.05;;;0.63;;
27684;SDS011;46113;50.130;8.526;2024-01-06T05:20:14;4.25;;;0.98;;
27684;SDS011;46113;50.130;8.526;2024-01-06T05:22:41;2.83;;;0.60;;
27684;SDS011;46113;50.130;8.526;2024-01-06T05:25:08;3.85;;;1.40;;
27684;SDS011;46113;50.130;8.526;2024-01-06T05:27:35;7.70;;;1.98;;
27684;SDS011;46113;50.130;8.526;2024-01-06T05:30:02;2.28;;;1.65;;
27684;SDS011;46113;50.130;8.526;2024-01-06T05:32:29;3.47;;;1.00;;
27684;SDS011;46113;50.130;8.526;2024-01-06T05:34:56;3.22;;;1.20;;
27684;SDS011;46113;50.130;8.526;2024-01-06T05:37:26;2.72;;;1.30;;
27684;SDS011;46113;50.130;8.526;2024-01-06T05:39:53;2.17;;;1.05;;
27684;SDS011;46113;50.130;8.526;2024-01-06T05:42:21;2.13;;;1.25;;
27684;SDS011;46113;50.130;8.526;2024-01-06T05:44:48;1.55;;;1.02;;
27684;SDS011;46113;50.130;8.526;2024-01-06T05:47:14;3.67;;;0.95;;
27684;SDS011;46113;50.130;8.526;2024-01-06T05:49:41;2.05;;;0.85;;
27684;SDS011;46113;50.130;8.526;2024-01-06T05:52:10;3.35;;;1.25;;
27684;SDS011;46113;50.130;8.526;2024-01-06T05:54:39;2.50;;;0.90;;
27684;SDS011;46113;50.130;8.526;2024-01-06T05:57:07;2.65;;;1.13;;
27684;SDS011;46113;50.130;8.526;2024-01-06T05:59:35;3.35;;;1.48;;
27684;SDS011;46113;50.130;8.526;2024-01-06T06:02:02;3.83;;;1.02;;
27684;SDS011;46113;50.130;8.526;2024-01-06T06:04:28;2.88;;;0.82;;
27684;SDS011;46113;50.130;8.526;2024-01-06T06:06:55;0.82;;;0.68;;
27684;SDS011;46113;50.130;8.526;2024-01-06T06:09:27;1.73;;;1.02;;
27684;SDS011;46113;50.130;8.526;2024-01-06T06:11:55;2.08;;;1.10;;
27684;SDS011;46113;50.130;8.526;2024-01-06T06:14:21;2.50;;;0.70;;
27684;SDS011;46113;50.130;8.526;2024-01-06T06:16:52;1.25;;;1.00;;
27684;SDS011;46113;50.130;8.526;2024-01-06T06:19:19;1.30;;;0.63;;
27684;SDS011;46113;50.130;8.526;2024-01-06T06:21:47;2.33;;;1.00;;
27684;SDS011;46113;50.130;8.526;2024-01-06T06:24:14;1.83;;;0.80;;
27684;SDS011;46113;50.130;8.526;2024-01-06T06:26:41;1.45;;;0.70;;
27684;SDS011;46113;50.130;8.526;2024-01-06T06:29:08;4.88;;;1.00;;
27684;SDS011;46113;50.130;8.526;2024-01-06T06:31:34;1.33;;;0.82;;
27684;SDS011;46113;50.130;8.526;2024-01-06T06:34:01;4.28;;;0.90;;
27684;SDS011;46113;50.130;8.526;2024-01-06T06:36:34;4.45;;;1.23;;
27684;SDS011;46113;50.130;8.526;2024-01-06T06:39:01;0.88;;;0.60;;
27684;SDS011;46113;50.130;8.526;2024-01-06T06:41:28;3.55;;;0.75;;
27684;SDS011;46113;50.130;8.526;2024-01-06T06:43:54;0.95;;;0.80;;
27684;SDS011;46113;50.130;8.526;2024-01-06T06:46:21;2.60;;;0.80;;
27684;SDS011;46113;50.130;8.526;2024-01-06T06:48:48;3.67;;;0.82;;
27684;SDS011;46113;50.130;8.526;2024-01-06T06:51:15;3.05;;;1.20;;
27684;SDS011;46113;50.130;8.526;2024-01-06T06:53:42;1.20;;;0.90;;
27684;SDS011;46113;50.130;8.526;2024-01-06T06:56:08;5.40;;;1.20;;
27684;SDS011;46113;50.130;8.526;2024-01-06T06:58:35;1.05;;;0.70;;
27684;SDS011;46113;50.130;8.526;2024-01-06T07:01:02;3.42;;;1.83;;
27684;SDS011;46113;50.130;8.526;2024-01-06T07:03:29;4.53;;;0.57;;
27684;SDS011;46113;50.130;8.526;2024-01-06T07:05:56;1.48;;;1.00;;
27684;SDS011;46113;50.130;8.526;2024-01-06T07:08:23;2.50;;;0.90;;
27684;SDS011;46113;50.130;8.526;2024-01-06T07:10:49;1.05;;;0.55;;
27684;SDS011;46113;50.130;8.526;2024-01-06T07:13:16;1.42;;;0.50;;
27684;SDS011;46113;50.130;8.526;2024-01-06T07:15:43;2.75;;;1.17;;
27684;SDS011;46113;50.130;8.526;2024-01-06T07:18:11;3.08;;;0.40;;
27684;SDS011;46113;50.130;8.526;2024-01-06T07:20:38;3.42;;;0.90;;
27684;SDS011;46113;50.130;8.526;2024-01-06T07:23:05;5.57;;;1.10;;
27684;SDS011;46113;50.130;8.526;2024-01-06T07:25:31;3.08;;;0.80;;
27684;SDS011;46113;50.130;8.526;2024-01-06T07:27:58;0.80;;;0.63;;
27684;SDS011;46113;50.130;8.526;2024-01-06T07:30:25;4.32;;;1.08;;
27684;SDS011;46113;50.130;8.526;2024-01-06T07:32:52;2.00;;;0.73;;
27684;SDS011;46113;50.130;8.526;2024-01-06T07:35:19;1.95;;;0.95;;
27684;SDS011;46113;50.130;8.526;2024-01-06T07:37:46;0.95;;;0.60;;
27684;SDS011;46113;50.130;8.526;2024-01-06T07:40:12;2.92;;;1.08;;
27684;SDS011;46113;50.130;8.526;2024-01-06T07:42:43;1.80;;;0.90;;
27684;SDS011;46113;50.130;8.526;2024-01-06T07:45:10;2.88;;;0.52;;
27684;SDS011;46113;50.130;8.526;2024-01-06T07:47:37;1.05;;;0.77;;
27684;SDS011;46113;50.130;8.526;2024-01-06T07:50:05;4.60;;;0.85;;
27684;SDS011;46113;50.130;8.526;2024-01-06T07:52:32;4.05;;;0.75;;
27684;SDS011;46113;50.130;8.526;2024-01-06T07:54:59;2.45;;;0.60;;
27684;SDS011;46113;50.130;8.526;2024-01-06T07:57:26;1.95;;;0.88;;
27684;SDS011;46113;50.130;8.526;2024-01-06T07:59:53;2.28;;;1.23;;
27684;SDS011;46113;50.130;8.526;2024-01-06T08:02:20;2.90;;;1.13;;
27684;SDS011;46113;50.130;8.526;2024-01-06T08:04:46;3.88;;;0.90;;
27684;SDS011;46113;50.130;8.526;2024-01-06T08:07:13;3.50;;;0.70;;
27684;SDS011;46113;50.130;8.526;2024-01-06T08:09:40;1.15;;;0.80;;
27684;SDS011;46113;50.130;8.526;2024-01-06T08:12:09;3.40;;;0.98;;
27684;SDS011;46113;50.130;8.526;2024-01-06T08:14:36;2.20;;;1.17;;
27684;SDS011;46113;50.130;8.526;2024-01-06T08:17:02;3.05;;;0.90;;
27684;SDS011;46113;50.130;8.526;2024-01-06T08:19:30;1.33;;;0.90;;
27684;SDS011;46113;50.130;8.526;2024-01-06T08:22:01;8.77;;;1.30;;
27684;SDS011;46113;50.130;8.526;2024-01-06T08:24:28;2.40;;;1.20;;
27684;SDS011;46113;50.130;8.526;2024-01-06T08:26:57;2.17;;;1.45;;
27684;SDS011;46113;50.130;8.526;2024-01-06T08:29:24;1.27;;;0.82;;
27684;SDS011;46113;50.130;8.526;2024-01-06T08:31:52;4.10;;;1.00;;
27684;SDS011;46113;50.130;8.526;2024-01-06T08:34:21;3.47;;;0.90;;
27684;SDS011;46113;50.130;8.526;2024-01-06T08:36:48;3.08;;;0.75;;
27684;SDS011;46113;50.130;8.526;2024-01-06T08:39:14;3.42;;;1.25;;
27684;SDS011;46113;50.130;8.526;2024-01-06T08:41:41;3.58;;;0.90;;
27684;SDS011;46113;50.130;8.526;2024-01-06T08:44:11;3.05;;;1.27;;
27684;SDS011;46113;50.130;8.526;2024-01-06T08:46:38;4.25;;;1.13;;
27684;SDS011;46113;50.130;8.526;2024-01-06T08:49:07;5.78;;;1.27;;
27684;SDS011;46113;50.130;8.526;2024-01-06T08:51:34;1.08;;;0.80;;
27684;SDS011;46113;50.130;8.526;2024-01-06T08:54:02;5.13;;;1.55;;
27684;SDS011;46113;50.130;8.526;2024-01-06T08:56:34;5.05;;;1.60;;
27684;SDS011;46113;50.130;8.526;2024-01-06T08:59:01;3.15;;;0.93;;
27684;SDS011;46113;50.130;8.526;2024-01-06T09:01:28;3.25;;;1.63;;
27684;SDS011;46113;50.130;8.526;2024-01-06T09:03:55;2.85;;;1.15;;
27684;SDS011;46113;50.130;8.526;2024-01-06T09:06:22;2.40;;;1.63;;
27684;SDS011;46113;50.130;8.526;2024-01-06T09:08:49;4.00;;;1.15;;
27684;SDS011;46113;50.130;8.526;2024-01-06T09:11:20;5.20;;;1.10;;
27684;SDS011;46113;50.130;8.526;2024-01-06T09:13:47;5.32;;;2.45;;
27684;SDS011;46113;50.130;8.526;2024-01-06T09:16:19;5.38;;;1.52;;
27684;SDS011;46113;50.130;8.526;2024-01-06T09:18:50;5.70;;;1.30;;
27684;SDS011;46113;50.130;8.526;2024-01-06T09:21:17;3.13;;;1.13;;
27684;SDS011;46113;50.130;8.526;2024-01-06T09:23:47;1.17;;;0.80;;
27684;SDS011;46113;50.130;8.526;2024-01-06T09:26:14;4.50;;;1.38;;
27684;SDS011;46113;50.130;8.526;2024-01-06T09:28:42;7.30;;;2.70;;
27684;SDS011;46113;50.130;8.526;2024-01-06T09:31:10;2.85;;;0.93;;
27684;SDS011;46113;50.130;8.526;2024-01-06T09:33:37;8.40;;;1.38;;
27684;SDS011;46113;50.130;8.526;2024-01-06T09:36:05;4.30;;;1.38;;
27684;SDS011;46113;50.130;8.526;2024-01-06T09:38:38;2.95;;;1.08;;
27684;SDS011;46113;50.130;8.526;2024-01-06T09:41:10;4.30;;;1.15;;
27684;SDS011;46113;50.130;8.526;2024-01-06T09:43:37;3.45;;;1.17;;
27684;SDS011;46113;50.130;8.526;2024-01-06T09:46:20;4.20;;;1.42;;
27684;SDS011;46113;50.130;8.526;2024-01-06T09:48:53;3.95;;;1.02;;
27684;SDS011;46113;50.130;8.526;2024-01-06T09:51:22;1.80;;;1.20;;
27684;SDS011;46113;50.130;8.526;2024-01-06T09:54:00;3.67;;;1.45;;
27684;SDS011;46113;50.130;8.526;2024-01-06T09:56:28;2.20;;;1.63;;
27684;SDS011;46113;50.130;8.526;2024-01-06T09:58:56;4.28;;;1.65;;
27684;SDS011;46113;50.130;8.526;2024-01-06T10:01:24;4.25;;;1.00;;
27684;SDS011;46113;50.130;8.526;2024-01-06T10:03:52;2.38;;;1.10;;
27684;SDS011;46113;50.130;8.526;2024-01-06T10:06:27;3.40;;;1.75;;
27684;SDS011;46113;50.130;8.526;2024-01-06T10:08:58;2.05;;;1.45;;
27684;SDS011;46113;50.130;8.526;2024-01-06T10:11:35;4.53;;;1.30;;
27684;SDS011;46113;50.130;8.526;2024-01-06T10:14:05;1.90;;;1.15;;
27684;SDS011;46113;50.130;8.526;2024-01-06T10:16:33;5.05;;;1.38;;
27684;SDS011;46113;50.130;8.526;2024-01-06T10:19:02;3.60;;;0.93;;
27684;SDS011;46113;50.130;8.526;2024-01-06T10:21:31;2.00;;;1.70;;
27684;SDS011;46113;50.130;8.526;2024-01-06T10:24:02;3.10;;;1.65;;
27684;SDS011;46113;50.130;8.526;2024-01-06T10:26:29;3.20;;;1.08;;
27684;SDS011;46113;50.130;8.526;2024-01-06T10:28:58;3.45;;;2.28;;
27684;SDS011;46113;50.130;8.526;2024-01-06T10:31:25;2.33;;;1.23;;
27684;SDS011;46113;50.130;8.526;2024-01-06T10:33:52;4.35;;;2.13;;
27684;SDS011;46113;50.130;8.526;2024-01-06T10:36:22;4.18;;;1.38;;
27684;SDS011;46113;50.130;8.526;2024-01-06T10:38:49;2.88;;;1.08;;
27684;SDS011;46113;50.130;8.526;2024-01-06T10:41:16;3.13;;;1.35;;
27684;SDS011;46113;50.130;8.526;2024-01-06T10:43:43;1.65;;;1.33;;
27684;SDS011;46113;50.130;8.526;2024-01-06T10:46:11;3.00;;;1.40;;
27684;SDS011;46113;50.130;8.526;2024-01-06T10:48:39;2.03;;;1.10;;
27684;SDS011;46113;50.130;8.526;2024-01-06T10:51:11;2.83;;;1.20;;
27684;SDS011;46113;50.130;8.526;2024-01-06T10:53:42;5.25;;;1.50;;
27684;SDS011;46113;50.130;8.526;2024-01-06T10:56:10;2.30;;;1.77;;
27684;SDS011;46113;50.130;8.526;2024-01-06T10:58:38;6.22;;;1.75;;
27684;SDS011;46113;50.130;8.526;2024-01-06T11:01:11;2.70;;;1.75;;
27684;SDS011;46113;50.130;8.526;2024-01-06T11:03:44;2.25;;;1.35;;
27684;SDS011;46113;50.130;8.526;2024-01-06T11:06:12;1.73;;;1.20;;
27684;SDS011;46113;50.130;8.526;2024-01-06T11:11:33;3.75;;;1.85;;
27684;SDS011;46113;50.130;8.526;2024-01-06T11:14:18;7.05;;;1.67;;
27684;SDS011;46113;50.130;8.526;2024-01-06T11:16:48;5.18;;;1.40;;
27684;SDS011;46113;50.130;8.526;2024-01-06T11:25:07;4.50;;;1.83;;
27684;SDS011;46113;50.130;8.526;2024-01-06T11:27:35;2.15;;;1.35;;
27684;SDS011;46113;50.130;8.526;2024-01-06T11:30:04;5.88;;;2.08;;
27684;SDS011;46113;50.130;8.526;2024-01-06T11:32:35;2.33;;;1.77;;
27684;SDS011;46113;50.130;8.526;2024-01-06T11:35:13;2.40;;;1.45;;
27684;SDS011;46113;50.130;8.526;2024-01-06T11:40:09;5.80;;;2.00;;
27684;SDS011;46113;50.130;8.526;2024-01-06T11:42:42;2.30;;;1.97;;
27684;SDS011;46113;50.130;8.526;2024-01-06T11:45:09;4.10;;;1.70;;
27684;SDS011;46113;50.130;8.526;2024-01-06T11:47:36;3.17;;;2.00;;
27684;SDS011;46113;50.130;8.526;2024-01-06T11:50:05;7.25;;;1.60;;
27684;SDS011;46113;50.130;8.526;2024-01-06T11:52:32;3.05;;;1.38;;
27684;SDS011;46113;50.130;8.526;2024-01-06T11:57:51;3.88;;;1.60;;
27684;SDS011;46113;50.130;8.526;2024-01-06T12:00:41;1.40;;;1.30;;
27684;SDS011;46113;50.130;8.526;2024-01-06T12:03:30;4.88;;;1.52;;
27684;SDS011;46113;50.130;8.526;2024-01-06T12:06:02;4.30;;;1.25;;
27684;SDS011;46113;50.130;8.526;2024-01-06T12:08:34;2.35;;;1.33;;
27684;SDS011;46113;50.130;8.526;2024-01-06T12:11:03;3.53;;;1.48;;
27684;SDS011;46113;50.130;8.526;2024-01-06T12:13:36;4.28;;;1.15;;
27684;SDS011;46113;50.130;8.526;2024-01-06T12:16:06;5.40;;;1.50;;
27684;SDS011;46113;50.130;8.526;2024-01-06T12:18:42;2.25;;;1.10;;
27684;SDS011;46113;50.130;8.526;2024-01-06T12:21:17;1.90;;;1.20;;
27684;SDS011;46113;50.130;8.526;2024-01-06T12:24:17;6.15;;;1.33;;
27684;SDS011;46113;50.130;8.526;2024-01-06T12:26:48;1.83;;;1.50;;
27684;SDS011;46113;50.130;8.526;2024-01-06T12:29:29;2.30;;;1.42;;
27684;SDS011;46113;50.130;8.526;2024-01-06T12:32:06;3.55;;;2.45;;
27684;SDS011;46113;50.130;8.526;2024-01-06T12:34:49;3.58;;;1.88;;
27684;SDS011;46113;50.130;8.526;2024-01-06T12:37:18;3.58;;;1.48;;
27684;SDS011;46113;50.130;8.526;2024-01-06T12:40:01;3.22;;;1.95;;
27684;SDS011;46113;50.130;8.526;2024-01-06T12:42:30;4.40;;;1.98;;
27684;SDS011;46113;50.130;8.526;2024-01-06T12:44:59;2.72;;;1.27;;
27684;SDS011;46113;50.130;8.526;2024-01-06T12:47:39;1.92;;;1.52;;
27684;SDS011;46113;50.130;8.526;2024-01-06T12:50:54;3.55;;;1.77;;
27684;SDS011;46113;50.130;8.526;2024-01-06T12:53:55;2.35;;;1.90;;
27684;SDS011;46113;50.130;8.526;2024-01-06T12:56:48;2.53;;;1.58;;
27684;SDS011;46113;50.130;8.526;2024-01-06T12:59:23;4.53;;;1.67;;
27684;SDS011;46113;50.130;8.526;2024-01-06T13:01:53;4.47;;;1.90;;
27684;SDS011;46113;50.130;8.526;2024-01-06T13:04:21;5.32;;;2.55;;
27684;SDS011;46113;50.130;8.526;2024-01-06T13:06:49;3.80;;;1.90;;
27684;SDS011;46113;50.130;8.526;2024-01-06T13:09:19;5.10;;;1.95;;
27684;SDS011;46113;50.130;8.526;2024-01-06T13:11:53;5.40;;;2.15;;
27684;SDS011;46113;50.130;8.526;2024-01-06T13:14:22;5.68;;;2.00;;
27684;SDS011;46113;50.130;8.526;2024-01-06T13:16:50;2.72;;;1.55;;
27684;SDS011;46113;50.130;8.526;2024-01-06T13:19:16;3.15;;;1.85;;
27684;SDS011;46113;50.130;8.526;2024-01-06T13:21:45;9.93;;;2.45;;
27684;SDS011;46113;50.130;8.526;2024-01-06T13:24:12;4.78;;;2.47;;
27684;SDS011;46113;50.130;8.526;2024-01-06T13:26:42;6.70;;;2.22;;
27684;SDS011;46113;50.130;8.526;2024-01-06T13:29:14;4.30;;;2.30;;
27684;SDS011;46113;50.130;8.526;2024-01-06T13:31:44;8.55;;;2.80;;
27684;SDS011;46113;50.130;8.526;2024-01-06T13:34:16;6.28;;;2.60;;
27684;SDS011;46113;50.130;8.526;2024-01-06T13:36:44;3.80;;;2.55;;
27684;SDS011;46113;50.130;8.526;2024-01-06T13:39:17;6.68;;;2.30;;
27684;SDS011;46113;50.130;8.526;2024-01-06T13:41:48;7.85;;;2.72;;
27684;SDS011;46113;50.130;8.526;2024-01-06T13:44:18;4.82;;;2.40;;
27684;SDS011;46113;50.130;8.526;2024-01-06T13:46:55;4.70;;;2.80;;
27684;SDS011;46113;50.130;8.526;2024-01-06T13:49:25;4.20;;;2.83;;
27684;SDS011;46113;50.130;8.526;2024-01-06T13:51:59;4.90;;;3.15;;
27684;SDS011;46113;50.130;8.526;2024-01-06T13:54:33;9.02;;;3.00;;
27684;SDS011;46113;50.130;8.526;2024-01-06T13:57:01;5.72;;;2.55;;
27684;SDS011;46113;50.130;8.526;2024-01-06T13:59:32;2.50;;;2.10;;
27684;SDS011;46113;50.130;8.526;2024-01-06T14:02:11;3.08;;;2.45;;
27684;SDS011;46113;50.130;8.526;2024-01-06T14:04:49;3.83;;;2.83;;
27684;SDS011;46113;50.130;8.526;2024-01-06T14:07:17;3.20;;;2.50;;
27684;SDS011;46113;50.130;8.526;2024-01-06T14:09:49;2.80;;;2.35;;
27684;SDS011;46113;50.130;8.526;2024-01-06T14:12:28;2.90;;;2.53;;
27684;SDS011;46113;50.130;8.526;2024-01-06T14:15:09;6.55;;;2.30;;
27684;SDS011;46113;50.130;8.526;2024-01-06T14:17:46;3.38;;;2.00;;
27684;SDS011;46113;50.130;8.526;2024-01-06T14:20:20;8.35;;;3.05;;
27684;SDS011;46113;50.130;8.526;2024-01-06T14:22:48;2.83;;;2.22;;
27684;SDS011;46113;50.130;8.526;2024-01-06T14:25:22;4.22;;;2.75;;
27684;SDS011;46113;50.130;8.526;2024-01-06T14:27:51;4.00;;;2.42;;
27684;SDS011;46113;50.130;8.526;2024-01-06T14:30:26;4.00;;;2.00;;
27684;SDS011;46113;50.130;8.526;2024-01-06T14:33:01;8.27;;;3.30;;
27684;SDS011;46113;50.130;8.526;2024-01-06T14:35:32;8.18;;;4.63;;
27684;SDS011;46113;50.130;8.526;2024-01-06T14:38:06;7.40;;;4.85;;
27684;SDS011;46113;50.130;8.526;2024-01-06T14:40:37;9.82;;;4.78;;
27684;SDS011;46113;50.130;8.526;2024-01-06T14:43:11;8.18;;;3.95;;
27684;SDS011;46113;50.130;8.526;2024-01-06T14:45:53;4.68;;;3.05;;
27684;SDS011;46113;50.130;8.526;2024-01-06T14:48:31;5.68;;;3.05;;
27684;SDS011;46113;50.130;8.526;2024-01-06T14:51:17;3.58;;;2.60;;
27684;SDS011;46113;50.130;8.526;2024-01-06T14:53:52;4.57;;;2.85;;
27684;SDS011;46113;50.130;8.526;2024-01-06T14:56:31;4.60;;;3.22;;
27684;SDS011;46113;50.130;8.526;2024-01-06T14:58:59;6.70;;;3.47;;
27684;SDS011;46113;50.130;8.526;2024-01-06T15:01:30;5.22;;;3.13;;
27684;SDS011;46113;50.130;8.526;2024-01-06T15:03:57;4.95;;;3.05;;
27684;SDS011;46113;50.130;8.526;2024-01-06T15:06:26;5.45;;;3.25;;
27684;SDS011;46113;50.130;8.526;2024-01-06T15:08:56;8.07;;;2.40;;
27684;SDS011;46113;50.130;8.526;2024-01-06T15:11:25;6.13;;;2.85;;
27684;SDS011;46113;50.130;8.526;2024-01-06T15:14:00;6.90;;;3.45;;
27684;SDS011;46113;50.130;8.526;2024-01-06T15:16:33;4.40;;;3.13;;